Latest Weather Observations for Learmonth

IDW60801

Issued at 6:35 pm WST Friday 18 April 2014 (issued every 30 minutes, with the page automatically refreshed every 10 minutes)

About weather observations | Map of weather stations | Latest weather observations for WA | Other Formats
Station Details ID: 005007 Name: LEARMONTH AIRPORT Lat: -22.24 Lon: 114.10 Height: 5.0 m
Data from the previous 72 hours. | See also: Recent months at Learmonth
Date/Time
WST
Temp
°C
App
Temp
°C
Dew
Point
Rel
Hum
%
Delta-T
°C
Wind Press
QNH
hPa
Press
MSL
hPa
Rain
since 9 am
mm
Dir
 
Spd
km/h
Gust
km/h
Spd
kts
Gust
kts
18/06:30pm 29.2 26.7 6.7 24 12.0 N 9 17 5 9 1013.9 - 0.0
18/06:00pm 31.3 28.8 6.6 21 13.3 NNE 9 11 5 6 1013.6 1013.5 0.0
18/05:30pm 33.3 29.2 2.0 14 15.8 N 13 17 7 9 1013.3 - 0.0
18/05:00pm 34.0 29.7 0.8 12 16.5 N 13 17 7 9 1013.0 - 0.0
18/04:30pm 34.4 30.0 0.6 11 16.8 N 13 19 7 10 1012.9 - 0.0
18/04:00pm 34.5 30.2 1.3 12 16.7 N 13 17 7 9 1013.0 - 0.0
18/03:30pm 34.3 30.7 3.2 14 16.1 N 11 19 6 10 1013.1 - 0.0
18/03:00pm 33.3 32.5 11.8 27 12.7 NE 7 11 4 6 1013.2 1013.1 0.0
18/02:30pm 31.9 31.6 17.3 41 9.3 NE 15 20 8 11 1013.1 - 0.0
18/02:00pm 32.0 32.0 18.2 43 8.9 ENE 15 17 8 9 1013.1 - 0.0
18/01:30pm 31.0 31.6 19.4 50 7.6 ENE 15 19 8 10 1013.3 - 0.0
18/01:00pm 30.7 32.1 21.0 56 6.5 ENE 15 19 8 10 1013.6 - 0.0
18/12:30pm 30.9 32.0 20.5 54 6.9 E 15 17 8 9 1014.0 - 0.0
18/12:00pm 30.7 31.1 19.9 52 7.1 E 17 20 9 11 1014.2 1014.1 0.0
18/11:30am 29.5 29.7 20.6 58 5.9 E 20 24 11 13 1014.5 - 0.0
18/11:00am 29.4 29.7 21.5 62 5.3 E 22 28 12 15 1014.7 - 0.0
18/10:30am 32.2 32.6 17.3 41 9.5 ESE 11 17 6 9 1014.6 - 0.0
18/10:00am 32.0 30.8 10.4 26 12.4 SW 7 11 4 6 1014.7 - 0.0
18/09:30am 30.5 30.9 15.4 40 9.3 WSW 7 11 4 6 1014.7 - 0.0
18/09:00am 28.9 29.2 16.9 48 7.5 SSW 11 15 6 8 1014.9 1014.8 0.0
18/08:30am 26.6 28.3 18.4 60 5.2 SW 7 11 4 6 1015.0 - 0.0
18/08:00am 24.7 27.3 17.5 64 4.5 CALM 0 6 0 3 1014.8 - 0.0
18/07:30am 20.7 22.3 17.8 83 1.8 WNW 6 9 3 5 1014.6 - 0.0
18/07:00am 17.4 17.8 16.2 93 0.7 WSW 9 11 5 6 1014.4 - 0.0
18/06:30am 17.1 17.0 15.9 93 0.7 SW 11 13 6 7 1014.2 - 0.0
18/06:00am 17.1 16.1 15.7 91 0.8 SSW 15 17 8 9 1014.1 1014.0 0.0
18/05:30am 17.7 17.1 14.6 82 1.8 WSW 11 13 6 7 1013.8 - 0.0
18/05:00am 18.8 18.5 14.5 76 2.5 SW 9 11 5 6 1013.8 - 0.0
18/04:30am 19.1 17.7 13.5 70 3.2 WSW 13 17 7 9 1013.8 - 0.0
18/04:00am 18.3 16.7 11.5 64 3.7 SSW 11 13 6 7 1013.8 - 0.0
18/03:30am 20.6 19.1 10.5 52 5.5 W 9 11 5 6 1013.8 - 0.0
18/03:00am 20.8 19.7 11.8 56 5.0 WSW 9 11 5 6 1014.1 1014.0 0.0
18/02:30am 19.9 19.2 14.2 69 3.3 WSW 11 15 6 8 1014.2 - 0.0
18/02:00am 20.1 21.5 17.7 86 1.5 WSW 7 9 4 5 1014.6 - 0.0
18/01:30am 20.7 22.3 18.3 86 1.5 SW 7 7 4 4 1014.8 - 0.0
18/01:00am 22.4 24.5 18.9 80 2.2 WSW 6 7 3 4 1015.0 - 0.0
18/12:30am 22.7 24.6 18.9 79 2.4 W 7 9 4 5 1015.2 - 0.0
18/12:00am 22.3 23.9 18.3 78 2.5 W 7 9 4 5 1015.5 1015.4 0.0
 
Date/Time
WST
Temp
°C
App
Temp
°C
Dew
Point
Rel
Hum
%
Delta-T
°C
Wind Press
QNH
hPa
Press
MSL
hPa
Rain
since 9 am
mm
Dir
 
Spd
km/h
Gust
km/h
Spd
kts
Gust
kts
17/11:30pm 21.3 21.8 16.5 74 2.9 W 9 11 5 6 1015.6 - 0.0
17/11:00pm 20.6 20.3 15.5 72 3.0 S 11 13 6 7 1015.9 - 0.0
17/10:30pm 22.1 22.3 15.8 67 3.8 SSW 9 11 5 6 1015.8 - 0.0
17/10:00pm 23.4 24.3 16.5 65 4.2 SW 7 9 4 5 1015.7 - 0.0
17/09:30pm 23.4 23.6 15.8 62 4.6 S 9 13 5 7 1015.7 - 0.0
17/09:00pm 23.8 23.4 16.2 62 4.6 S 13 15 7 8 1015.6 1015.5 0.0
17/08:30pm 24.9 25.4 16.6 60 5.1 S 9 11 5 6 1015.4 - 0.0
17/08:00pm 26.7 26.0 16.5 53 6.3 SW 15 19 8 10 1014.8 - 0.0
17/07:30pm 27.6 27.4 17.6 54 6.3 WSW 15 20 8 11 1014.4 - 0.0
17/07:00pm 28.7 27.8 16.9 48 7.4 W 17 22 9 12 1014.1 - 0.0
17/06:30pm 29.1 28.3 13.0 37 9.5 NW 9 11 5 6 1013.6 - 0.0
17/06:00pm 30.0 28.3 12.5 34 10.3 N 13 17 7 9 1013.2 1013.1 0.0
17/05:30pm 31.1 28.9 12.2 31 11.1 N 15 17 8 9 1013.0 - 0.0
17/05:00pm 31.9 28.2 9.4 25 12.7 N 19 24 10 13 1013.0 - 0.0
17/04:30pm 32.5 28.0 7.0 20 13.9 N 20 26 11 14 1012.9 - 0.0
17/04:00pm 33.2 28.2 4.4 16 15.1 N 20 26 11 14 1012.8 - 0.0
17/03:30pm 33.2 28.3 5.1 17 14.9 N 20 26 11 14 1012.8 - 0.0
17/03:00pm 33.8 28.4 2.4 14 16.0 N 20 24 11 13 1012.9 1012.8 0.0
17/02:30pm 33.1 29.7 9.0 22 13.6 NNE 17 20 9 11 1013.0 - 0.0
17/02:00pm 32.1 30.7 14.4 34 10.8 NNE 15 19 8 10 1013.2 - 0.0
17/01:30pm 31.8 29.9 13.1 32 11.2 NE 15 20 8 11 1013.5 - 0.0
17/01:00pm 30.8 30.6 17.6 45 8.4 ENE 15 20 8 11 1013.7 - 0.0
17/12:30pm 29.8 30.4 19.5 54 6.7 ENE 15 19 8 10 1014.1 - 0.0
17/12:00pm 28.9 28.9 19.0 55 6.4 ENE 17 19 9 10 1014.4 1014.3 0.0
17/11:30am 28.7 28.3 18.0 52 6.8 ENE 17 22 9 12 1014.8 - 0.0
17/11:00am 28.8 27.7 16.4 47 7.7 E 17 20 9 11 1015.1 - 0.0
17/10:30am 29.1 28.7 15.2 42 8.5 ENE 11 13 6 7 1015.1 - 0.0
17/10:00am 29.0 29.0 14.2 40 8.9 E 7 11 4 6 1015.2 - 0.0
17/09:30am 27.9 28.1 14.2 43 8.2 ESE 6 9 3 5 1015.3 - 0.0
17/09:00am 26.2 26.2 13.6 45 7.4 SE 6 9 3 5 1015.2 1015.1 -
17/08:30am 24.5 24.3 13.7 51 6.3 S 7 9 4 5 1015.0 - -
17/08:00am 22.7 22.6 13.8 57 5.2 SSW 7 11 4 6 1014.8 - -
17/07:30am 19.8 20.8 16.3 80 2.1 SW 6 7 3 4 1014.5 - -
17/07:00am 17.5 17.1 15.3 87 1.3 SSW 11 13 6 7 1014.1 - -
17/06:30am 18.4 19.6 15.9 85 1.5 SE 4 7 2 4 1014.1 - -
17/06:00am 19.7 21.0 17.2 85 1.5 WNW 6 7 3 4 1013.8 1013.7 -
17/05:30am 20.1 21.5 17.8 86 1.4 W 7 13 4 7 1013.7 - -
17/05:00am 21.3 22.4 18.1 82 2.0 WNW 9 13 5 7 1013.5 - -
17/04:30am 22.0 22.8 18.2 79 2.4 NW 11 15 6 8 1013.5 - -
17/04:00am 22.6 23.7 18.1 76 2.8 NW 9 13 5 7 1013.6 - -
17/03:30am 23.0 24.4 18.6 76 2.8 N 9 11 5 6 1013.8 - -
17/03:00am 24.2 24.8 18.7 71 3.5 NW 13 17 7 9 1013.7 1013.6 -
17/02:30am 24.3 23.4 18.3 69 3.8 WSW 20 24 11 13 1013.5 - -
17/02:00am 24.1 23.6 17.9 68 3.9 WSW 17 20 9 11 1013.7 - -
17/01:30am 23.1 23.1 16.2 65 4.2 WSW 11 17 6 9 1013.9 - -
17/01:00am 23.9 23.7 14.6 56 5.5 W 9 11 5 6 1014.0 - -
17/12:30am 22.1 22.9 13.8 59 4.8 W 2 7 1 4 1014.2 - -
17/12:00am 23.5 23.8 16.1 63 4.5 W 9 11 5 6 1014.3 1014.2 -
 
Date/Time
WST
Temp
°C
App
Temp
°C
Dew
Point
Rel
Hum
%
Delta-T
°C
Wind Press
QNH
hPa
Press
MSL
hPa
Rain
since 9 am
mm
Dir
 
Spd
km/h
Gust
km/h
Spd
kts
Gust
kts
16/11:30pm 23.1 23.9 17.3 70 3.6 W 9 13 5 7 1014.5 - -
16/11:00pm 23.5 23.9 18.1 71 3.4 WSW 13 15 7 8 1014.7 - -
16/10:30pm 24.4 24.9 17.5 65 4.3 WSW 11 13 6 7 1015.1 - -
16/10:00pm 23.9 23.1 16.0 61 4.8 SW 15 17 8 9 1015.2 - -
16/09:30pm 23.7 22.6 15.2 59 5.1 S 15 17 8 9 1015.2 - -
16/09:00pm 23.8 24.3 14.9 57 5.3 S 6 13 3 7 1014.9 1014.8 -
16/08:30pm 26.0 26.6 15.8 53 6.2 WSW 7 11 4 6 1014.6 - -
16/08:00pm 26.7 26.7 15.1 49 7.0 W 9 13 5 7 1014.3 - -
16/07:30pm 28.4 26.2 13.4 39 8.9 WNW 17 22 9 12 1013.8 - -
16/07:00pm 27.2 26.5 16.4 51 6.7 NNW 15 24 8 13 1013.5 - -
16/06:30pm 28.0 28.2 18.5 56 6.1 N 15 19 8 10 1012.9 - -
16/06:00pm 29.4 29.2 16.6 46 8.0 N 13 17 7 9 1012.6 1012.5 -
16/05:30pm 30.8 29.0 13.2 34 10.5 N 15 20 8 11 1012.4 - -
16/05:00pm 31.9 28.9 9.4 25 12.7 NNE 15 17 8 9 1012.3 - -
16/04:30pm 33.0 30.1 8.3 21 13.8 NNE 13 17 7 9 1012.4 - -
16/04:00pm 32.9 29.5 5.9 18 14.5 NNE 13 17 7 9 1012.4 - -
16/03:30pm 33.0 28.2 4.4 16 15.0 N 19 24 10 13 1012.5 - -
16/03:00pm 32.7 27.2 5.8 18 14.4 N 24 30 13 16 1012.6 1012.5 -
16/02:30pm 32.7 27.6 7.7 21 13.8 N 24 30 13 16 1012.8 - -
16/02:00pm 32.9 28.4 8.4 22 13.7 N 22 32 12 17 1012.9 - -
16/01:30pm 32.6 28.3 7.8 21 13.7 N 20 33 11 18 1013.2 - -
16/12:00pm 30.3 29.5 17.0 44 8.4 NE 17 22 9 12 1014.6 1014.5 0.0
16/11:30am 29.6 28.9 17.4 47 7.7 NE 17 20 9 11 1015.1 - 0.0
16/11:00am 28.8 28.0 17.2 49 7.3 ENE 17 22 9 12 1015.6 - 0.0
16/10:30am 28.0 28.8 19.0 58 5.8 E 13 17 7 9 1015.9 - 0.0
16/10:00am 26.7 27.6 19.2 63 4.8 E 13 19 7 10 1016.1 - 0.0
16/09:30am 27.2 28.2 18.6 59 5.5 E 11 15 6 8 1016.3 - 0.0
16/09:00am 26.4 27.3 17.6 58 5.5 ESE 9 13 5 7 1016.2 1016.1 0.0
16/08:30am 25.4 23.9 10.5 39 8.3 SSE 9 15 5 8 1016.2 - 0.0
16/08:00am 24.2 20.8 4.1 27 9.9 SSW 11 13 6 7 1016.0 - 0.0
16/07:30am 21.5 18.8 5.7 35 7.9 SW 9 13 5 7 1015.6 - 0.0
16/07:00am 18.8 15.8 6.0 43 6.3 SW 11 15 6 8 1015.2 - 0.0
16/06:30am 19.3 15.8 5.4 40 6.8 SW 13 15 7 8 1015.0 - 0.0
16/06:00am 19.7 16.3 5.7 40 6.9 WSW 13 15 7 8 1014.7 1014.6 0.0
16/05:30am 20.2 16.8 5.9 39 7.1 SW 13 13 7 7 1014.4 - 0.0
16/05:00am 20.2 16.5 6.5 41 6.9 WSW 15 17 8 9 1014.3 - 0.0
16/04:30am 20.3 17.3 7.7 44 6.5 WSW 13 15 7 8 1014.2 - 0.0
16/04:00am 21.2 18.7 8.4 43 6.7 WSW 11 13 6 7 1014.1 - 0.0
16/03:30am 20.3 18.2 9.6 50 5.7 SW 11 13 6 7 1014.0 - 0.0
16/03:00am 20.6 17.9 10.5 52 5.5 SSW 15 17 8 9 1014.0 1013.9 0.0
16/02:30am 21.8 20.1 13.7 60 4.7 SSW 15 19 8 10 1014.3 - 0.0
16/02:00am 21.9 21.0 16.8 73 3.1 SW 17 19 9 10 1014.5 - 0.0
16/01:30am 23.0 23.2 17.7 72 3.3 SW 13 15 7 8 1014.7 - 0.0
16/01:00am 24.0 24.5 19.3 75 3.0 WSW 15 17 8 9 1014.8 - 0.0
16/12:30am 24.2 24.2 19.0 72 3.3 WSW 17 19 9 10 1014.9 - 0.0
16/12:00am 24.6 24.6 18.2 67 4.0 WSW 15 19 8 10 1015.1 1015.0 0.0
 
Date/Time
WST
Temp
°C
App
Temp
°C
Dew
Point
Rel
Hum
%
Delta-T
°C
Wind Press
QNH
hPa
Press
MSL
hPa
Rain
since 9 am
mm
Dir
 
Spd
km/h
Gust
km/h
Spd
kts
Gust
kts
15/11:30pm 24.6 24.8 17.7 65 4.3 SW 13 15 7 8 1015.4 - 0.0
15/11:00pm 24.4 23.6 16.0 59 5.1 SSW 15 17 8 9 1015.2 - 0.0
15/10:30pm 26.3 24.7 15.0 49 6.8 WSW 17 20 9 11 1015.4 - 0.0
15/10:00pm 26.7 24.9 13.4 43 7.8 WSW 15 20 8 11 1015.7 - 0.0
15/09:30pm 26.9 25.8 14.3 46 7.5 W 13 17 7 9 1015.7 - 0.0
15/09:00pm 26.3 26.2 17.0 56 5.8 WSW 13 17 7 9 1015.8 1015.7 0.0
15/08:30pm 27.3 26.7 17.6 55 6.1 WSW 17 20 9 11 1015.6 - 0.0
15/08:00pm 27.8 27.3 17.7 54 6.4 WSW 17 22 9 12 1015.4 - 0.0
15/07:30pm 28.4 27.7 15.3 45 8.0 WSW 13 20 7 11 1015.0 - 0.0
15/07:00pm 29.4 27.2 10.8 31 10.6 W 13 19 7 10 1014.5 - 0.0

Other Formats:

Comma delimited format used in spreadsheet applications
http://www.bom.gov.au/fwo/IDW60801/IDW60801.94302.axf

JavaScript Object Notation format (JSON) in row-major order
http://www.bom.gov.au/fwo/IDW60801/IDW60801.94302.json